SCEL 241500Z VRB02KT 8000 NSC 14/M01 Q1019 NOSIG